createdAt,value
2022-11-12T00:00:13.119Z,12.53
2022-11-12T00:02:40.380Z,14.07
2022-11-12T00:05:10.576Z,13.10
2022-11-12T00:07:37.926Z,14.63
2022-11-12T00:10:06.050Z,15.40
2022-11-12T00:12:33.288Z,14.57
2022-11-12T00:15:00.513Z,13.53
2022-11-12T00:17:29.588Z,14.27
2022-11-12T00:19:56.692Z,13.43
2022-11-12T00:22:23.666Z,13.33
2022-11-12T00:24:50.794Z,13.87
2022-11-12T00:27:18.096Z,13.90
2022-11-12T00:29:45.028Z,13.57
2022-11-12T00:32:15.148Z,13.57
2022-11-12T00:34:43.661Z,13.07
2022-11-12T00:37:16.439Z,12.80
2022-11-12T00:39:43.724Z,13.23
2022-11-12T00:42:11.433Z,12.87
2022-11-12T00:44:38.475Z,13.13
2022-11-12T00:47:08.280Z,13.97
2022-11-12T00:49:35.222Z,14.37
2022-11-12T00:52:10.876Z,14.30
2022-11-12T00:54:37.854Z,13.53
2022-11-12T00:57:05.780Z,12.73
2022-11-12T00:59:32.657Z,13.00
2022-11-12T01:01:59.626Z,13.27
2022-11-12T01:04:29.204Z,13.87
2022-11-12T01:06:59.061Z,12.57
2022-11-12T01:09:27.542Z,12.73
2022-11-12T01:11:55.329Z,12.67
2022-11-12T01:14:22.257Z,11.80
2022-11-12T01:16:49.194Z,12.50
2022-11-12T01:19:16.217Z,12.47
2022-11-12T01:21:44.646Z,12.30
2022-11-12T01:24:12.126Z,12.17
2022-11-12T01:26:40.161Z,12.23
2022-11-12T01:29:09.812Z,12.30
2022-11-12T01:31:39.908Z,12.80
2022-11-12T01:34:08.668Z,12.87
2022-11-12T01:36:41.180Z,13.67
2022-11-12T01:39:09.254Z,13.50
2022-11-12T01:41:39.181Z,14.43
2022-11-12T01:44:14.893Z,13.50
2022-11-12T01:47:09.729Z,13.33
2022-11-12T01:49:54.278Z,14.80
2022-11-12T01:52:35.075Z,15.87
2022-11-12T01:55:12.041Z,14.30
2022-11-12T01:57:47.646Z,13.80
2022-11-12T02:00:18.676Z,14.60
2022-11-12T02:02:52.095Z,14.97
2022-11-12T02:05:20.710Z,14.60
2022-11-12T02:07:48.897Z,14.60
2022-11-12T02:10:16.121Z,14.03
2022-11-12T02:13:07.928Z,14.47
2022-11-12T02:15:34.956Z,14.40
2022-11-12T02:20:42.909Z,15.40
2022-11-12T02:23:11.148Z,15.70
2022-11-12T02:25:48.830Z,16.27
2022-11-12T02:33:39.367Z,13.87
2022-11-12T02:36:06.529Z,15.80
2022-11-12T02:41:15.023Z,15.70
2022-11-12T02:43:45.065Z,14.63
2022-11-12T02:46:13.161Z,14.63
2022-11-12T02:54:05.125Z,15.50
2022-11-12T02:56:35.741Z,15.43
2022-11-12T03:01:55.160Z,15.20
2022-11-12T03:04:22.597Z,14.93
2022-11-12T03:06:49.957Z,14.63
2022-11-12T03:09:35.958Z,15.47
2022-11-12T03:25:58.982Z,16.43
2022-11-12T03:31:09.263Z,15.83
2022-11-12T03:33:38.224Z,19.38
2022-11-12T03:36:06.045Z,17.47
2022-11-12T03:46:40.134Z,15.60
2022-11-12T03:49:10.851Z,18.30
2022-11-12T04:56:06.050Z,15.20
2022-11-12T04:58:36.937Z,15.63
2022-11-12T05:01:04.277Z,15.57
2022-11-12T05:03:36.293Z,15.37
2022-11-12T07:48:52.673Z,12.40
2022-11-12T07:51:29.336Z,12.10
2022-11-12T07:54:01.373Z,11.70
2022-11-12T07:59:19.874Z,10.20
2022-11-12T08:02:15.788Z,9.20
2022-11-12T08:04:47.850Z,9.30
2022-11-12T08:07:21.059Z,9.27
2022-11-12T08:09:56.260Z,9.03
2022-11-12T08:21:05.530Z,9.13
2022-11-12T08:23:53.461Z,9.23
2022-11-12T08:26:37.513Z,8.17
2022-11-12T08:29:37.073Z,9.17
2022-11-12T08:34:42.171Z,9.77
2022-11-12T08:43:51.972Z,9.00
2022-11-12T08:47:03.723Z,9.37
2022-11-12T08:49:31.158Z,9.50
2022-11-12T08:52:01.251Z,9.43
2022-11-12T08:54:32.989Z,8.90
2022-11-12T08:57:05.905Z,8.33
2022-11-12T09:07:51.987Z,8.53
2022-11-12T09:13:06.216Z,8.20
2022-11-12T09:18:18.432Z,7.60
2022-11-12T09:23:27.556Z,7.87
2022-11-12T09:26:27.176Z,8.00
2022-11-12T09:31:52.746Z,7.47
2022-11-12T09:34:23.836Z,7.30
2022-11-12T10:47:16.733Z,8.10
2022-11-12T10:49:43.883Z,8.23
2022-11-12T10:52:31.465Z,7.87
2022-11-12T10:55:18.490Z,7.60
2022-11-12T11:01:20.283Z,6.87
2022-11-12T11:04:15.640Z,7.00
2022-11-12T11:09:59.198Z,7.13
2022-11-12T11:28:18.057Z,5.80
2022-11-12T11:45:02.814Z,5.70
2022-11-12T11:47:59.414Z,6.43
2022-11-12T11:50:33.831Z,6.50
2022-11-12T11:53:25.141Z,5.70
2022-11-12T12:41:32.709Z,5.00
2022-11-12T13:37:23.640Z,5.13
2022-11-12T13:39:51.307Z,6.00
2022-11-12T13:42:37.647Z,5.60
2022-11-12T13:45:06.323Z,5.67
2022-11-12T13:47:33.928Z,5.27
2022-11-12T13:50:02.080Z,4.87
2022-11-12T13:52:29.770Z,5.13
2022-11-12T13:55:06.395Z,4.83
2022-11-12T13:57:33.923Z,5.07
2022-11-12T14:00:20.886Z,4.67
2022-11-12T14:02:58.332Z,4.43
2022-11-12T14:05:36.469Z,3.90
2022-11-12T14:08:17.972Z,4.60
2022-11-12T14:10:58.557Z,4.20
2022-11-12T14:13:50.108Z,4.57
2022-11-12T14:16:34.586Z,4.47
2022-11-12T14:19:17.047Z,4.00
2022-11-12T14:21:58.036Z,3.83
2022-11-12T14:24:25.098Z,3.97
2022-11-12T14:26:56.543Z,4.17
2022-11-12T14:30:00.312Z,3.93
2022-11-12T14:35:30.392Z,4.40
2022-11-12T14:38:06.802Z,3.97
2022-11-12T14:44:49.542Z,4.03
2022-11-12T14:50:00.721Z,4.17
2022-11-12T14:55:50.603Z,4.17
2022-11-12T15:02:21.770Z,4.40
2022-11-12T15:08:58.544Z,4.93
2022-11-12T15:11:48.485Z,5.13
2022-11-12T15:14:26.367Z,4.70
2022-11-12T15:16:54.173Z,4.37
2022-11-12T15:19:24.961Z,4.50
2022-11-12T15:22:01.541Z,4.10
2022-11-12T15:24:39.677Z,4.43
2022-11-12T15:27:41.870Z,4.50
2022-11-12T15:30:25.040Z,4.07
2022-11-12T15:33:13.892Z,4.97
2022-11-12T15:35:44.931Z,4.77
2022-11-12T15:38:26.377Z,6.23
2022-11-12T15:40:57.648Z,5.23
2022-11-12T15:43:43.097Z,4.80
2022-11-12T15:46:15.962Z,4.63
2022-11-12T15:48:43.185Z,5.20
2022-11-12T15:51:15.851Z,5.00
2022-11-12T15:53:42.901Z,5.03
2022-11-12T15:56:17.873Z,4.90
2022-11-12T15:58:45.197Z,5.50
2022-11-12T16:01:13.337Z,6.20
2022-11-12T16:03:41.070Z,6.73
2022-11-12T16:06:12.308Z,6.00
2022-11-12T16:08:39.715Z,5.47
2022-11-12T16:11:28.496Z,5.77
2022-11-12T16:13:56.012Z,5.57
2022-11-12T16:16:23.353Z,6.17
2022-11-12T16:18:52.678Z,6.67
2022-11-12T16:21:21.132Z,6.03
2022-11-12T16:23:48.298Z,6.40
2022-11-12T16:26:19.277Z,9.23
2022-11-12T16:28:46.376Z,9.87
2022-11-12T16:31:13.553Z,10.23
2022-11-12T16:33:40.604Z,10.03
2022-11-12T16:36:15.968Z,9.30
2022-11-12T16:38:43.724Z,7.60
2022-11-12T16:41:12.373Z,8.83
2022-11-12T16:43:40.373Z,7.73
2022-11-12T16:46:14.843Z,7.50
2022-11-12T16:48:42.447Z,9.43
2022-11-12T16:51:19.449Z,9.70
2022-11-12T16:56:37.093Z,8.93
2022-11-12T16:59:07.639Z,9.90
2022-11-12T17:01:36.042Z,15.07
2022-11-12T17:04:07.226Z,16.77
2022-11-12T17:09:27.097Z,22.00
2022-11-12T17:14:37.603Z,34.17
2022-11-12T17:17:05.664Z,35.17
2022-11-12T17:19:32.931Z,30.67
2022-11-12T17:22:00.654Z,29.23
2022-11-12T17:24:36.800Z,24.73
2022-11-12T17:27:04.551Z,24.63
2022-11-12T17:29:32.014Z,22.53
2022-11-12T17:31:59.620Z,31.03
2022-11-12T17:34:27.134Z,25.93
2022-11-12T17:36:54.396Z,27.97
2022-11-12T17:39:23.008Z,25.57
2022-11-12T17:41:50.544Z,24.27
2022-11-12T17:44:20.286Z,22.07
2022-11-12T17:46:48.552Z,22.43
2022-11-12T17:49:21.980Z,22.53
2022-11-12T17:51:49.516Z,23.60
2022-11-12T17:54:16.656Z,24.33
2022-11-12T17:56:43.829Z,24.87
2022-11-12T17:59:10.883Z,26.13
2022-11-12T18:01:38.069Z,26.70
2022-11-12T18:04:05.272Z,27.23
2022-11-12T18:06:34.473Z,25.93
2022-11-12T18:09:07.266Z,27.17
2022-11-12T18:11:46.484Z,34.77
2022-11-12T18:14:17.126Z,42.07
2022-11-12T18:16:44.695Z,48.53
2022-11-12T18:19:12.619Z,42.13
2022-11-12T18:21:40.930Z,84.13
2022-11-12T18:24:14.132Z,105.50
2022-11-12T18:26:41.339Z,117.97
2022-11-12T18:29:08.694Z,80.73
2022-11-12T18:31:35.941Z,52.70
2022-11-12T18:34:02.989Z,51.90
2022-11-12T18:36:30.227Z,54.20
2022-11-12T18:38:57.466Z,45.77
2022-11-12T18:41:27.312Z,50.83
2022-11-12T18:43:58.907Z,47.83
2022-11-12T18:46:25.954Z,52.90
2022-11-12T18:48:53.232Z,46.63
2022-11-12T18:51:20.312Z,48.17
2022-11-12T18:53:48.572Z,52.80
2022-11-12T18:56:19.123Z,47.13
2022-11-12T19:01:32.490Z,44.77
2022-11-12T19:06:43.085Z,42.63
2022-11-12T19:17:15.880Z,44.83
2022-11-12T19:19:42.924Z,42.87
2022-11-12T19:22:11.411Z,43.70
2022-11-12T19:24:38.422Z,38.97
2022-11-12T19:27:05.961Z,33.27
2022-11-12T19:29:33.178Z,29.10
2022-11-12T19:32:00.213Z,24.50
2022-11-12T19:34:28.817Z,19.53
2022-11-12T19:37:31.937Z,30.73
2022-11-12T19:39:53.692Z,45.33
2022-11-12T19:42:20.739Z,33.40
2022-11-12T19:44:48.758Z,34.17
2022-11-12T19:47:17.500Z,37.67
2022-11-12T19:52:26.529Z,38.20
2022-11-12T19:54:53.711Z,56.87
2022-11-12T19:57:20.937Z,49.53
2022-11-12T19:59:48.149Z,48.70
2022-11-12T20:02:15.448Z,43.10
2022-11-12T20:04:44.164Z,50.93
2022-11-12T20:07:11.766Z,46.00
2022-11-12T20:09:40.257Z,42.13
2022-11-12T20:12:07.690Z,46.83
2022-11-12T20:14:34.969Z,48.53
2022-11-12T20:17:02.762Z,47.00
2022-11-12T20:19:29.954Z,46.20
2022-11-12T20:21:58.028Z,49.40
2022-11-12T20:24:25.466Z,45.67
2022-11-12T20:26:53.263Z,43.23
2022-11-12T20:29:23.364Z,41.50
2022-11-12T20:31:50.686Z,39.63
2022-11-12T20:34:18.006Z,36.23
2022-11-12T20:36:45.465Z,37.53
2022-11-12T20:39:13.170Z,38.77
2022-11-12T20:41:41.128Z,41.20
2022-11-12T20:44:08.741Z,52.40
2022-11-12T20:54:52.465Z,49.67
2022-11-12T20:57:22.367Z,47.37
2022-11-12T20:59:51.521Z,45.37
2022-11-12T21:02:20.631Z,45.57
2022-11-12T21:04:48.863Z,44.63
2022-11-12T21:07:16.167Z,43.07
2022-11-12T21:09:43.937Z,43.93
2022-11-12T21:12:14.200Z,45.07
2022-11-12T21:14:50.053Z,41.77
2022-11-12T21:20:22.231Z,38.67
2022-11-12T21:23:00.710Z,40.60
2022-11-12T21:25:42.085Z,40.57
2022-11-12T21:44:51.329Z,44.67
2022-11-12T21:47:21.990Z,43.50
2022-11-12T21:49:49.519Z,45.70
2022-11-12T21:52:19.593Z,45.43
2022-11-12T21:57:28.943Z,46.50
2022-11-12T22:02:38.802Z,45.37
2022-11-12T22:07:54.210Z,47.20
2022-11-12T22:10:21.388Z,43.87
2022-11-12T22:13:24.706Z,45.47
2022-11-12T22:15:42.362Z,41.80
2022-11-12T22:18:09.569Z,43.80
2022-11-12T22:20:40.265Z,46.03
2022-11-12T22:23:11.450Z,41.40
2022-11-12T22:28:19.809Z,43.03
2022-11-12T22:30:48.903Z,43.50
2022-11-12T22:33:16.425Z,44.57
2022-11-12T22:35:44.213Z,43.53
2022-11-12T22:38:23.560Z,43.40
2022-11-12T22:41:01.248Z,42.30
2022-11-12T22:43:28.274Z,42.73
2022-11-12T22:45:55.357Z,42.27
2022-11-12T22:48:22.497Z,41.13
2022-11-12T22:50:50.100Z,42.27
2022-11-12T22:53:17.314Z,44.70
2022-11-12T22:55:44.478Z,43.03
2022-11-12T22:58:14.260Z,41.00
2022-11-12T23:00:44.514Z,41.33
2022-11-12T23:08:39.581Z,40.47
2022-11-12T23:11:28.555Z,40.93
2022-11-12T23:13:56.670Z,39.57
2022-11-12T23:16:32.432Z,40.37
2022-11-12T23:19:00.871Z,40.47
2022-11-12T23:24:11.237Z,40.90
2022-11-12T23:26:38.876Z,47.27
2022-11-12T23:29:06.204Z,47.87
2022-11-12T23:31:33.780Z,49.43
2022-11-12T23:34:01.720Z,47.57
2022-11-12T23:36:32.662Z,45.17
2022-11-12T23:39:00.427Z,45.80
2022-11-12T23:41:28.838Z,46.97
2022-11-12T23:43:57.164Z,43.47
2022-11-12T23:46:24.513Z,45.00
2022-11-12T23:48:51.643Z,43.93
2022-11-12T23:51:20.671Z,45.50
2022-11-12T23:53:50.593Z,43.70
2022-11-12T23:56:21.537Z,43.60
2022-11-12T23:58:57.888Z,43.10
